createdAt,value
2018-11-12T00:00:36.564Z,1.10
2018-11-12T00:03:04.152Z,1.17
2018-11-12T00:05:31.662Z,0.93
2018-11-12T00:07:59.170Z,1.00
2018-11-12T00:10:26.892Z,0.97
2018-11-12T00:12:54.407Z,0.93
2018-11-12T00:15:21.902Z,0.87
2018-11-12T00:17:49.415Z,1.23
2018-11-12T00:20:17.583Z,0.80
2018-11-12T00:22:45.649Z,1.10
2018-11-12T00:25:13.151Z,0.90
2018-11-12T00:27:40.755Z,1.10
2018-11-12T00:30:09.053Z,1.23
2018-11-12T00:32:36.563Z,1.10
2018-11-12T00:35:04.295Z,1.00
2018-11-12T00:37:31.923Z,1.07
2018-11-12T00:39:59.399Z,1.10
2018-11-12T00:42:26.922Z,0.97
2018-11-12T00:44:54.474Z,0.93
2018-11-12T00:47:22.029Z,1.10
2018-11-12T00:49:49.535Z,1.00
2018-11-12T00:52:17.039Z,0.80
2018-11-12T00:54:44.543Z,0.70
2018-11-12T00:57:12.067Z,0.90
2018-11-12T00:59:39.580Z,0.80
2018-11-12T01:02:07.091Z,1.33
2018-11-12T01:04:34.722Z,0.90
2018-11-12T01:07:03.357Z,0.90
2018-11-12T01:09:30.867Z,1.00
2018-11-12T01:11:58.394Z,0.80
2018-11-12T01:14:25.950Z,0.90
2018-11-12T01:16:53.499Z,0.80
2018-11-12T01:19:21.003Z,0.93
2018-11-12T01:21:48.531Z,0.90
2018-11-12T01:24:16.162Z,0.80
2018-11-12T01:26:43.678Z,0.80
2018-11-12T01:29:11.214Z,0.80
2018-11-12T01:31:38.734Z,0.85
2018-11-12T01:34:06.265Z,0.80
2018-11-12T01:36:33.744Z,0.70
2018-11-12T01:39:01.447Z,0.80
2018-11-12T01:41:28.970Z,0.87
2018-11-12T01:43:56.515Z,0.80
2018-11-12T01:46:24.044Z,0.90
2018-11-12T01:48:51.612Z,0.70
2018-11-12T01:51:19.151Z,0.80
2018-11-12T01:53:46.658Z,0.70
2018-11-12T01:56:14.155Z,0.80
2018-11-12T01:58:41.944Z,1.10
2018-11-12T02:01:09.431Z,0.80
2018-11-12T02:03:36.950Z,0.90
2018-11-12T02:06:04.459Z,0.80
2018-11-12T02:08:31.974Z,0.90
2018-11-12T02:10:59.474Z,0.80
2018-11-12T02:13:26.983Z,0.70
2018-11-12T02:15:54.479Z,0.83
2018-11-12T02:18:21.991Z,0.80
2018-11-12T02:20:49.497Z,0.73
2018-11-12T02:23:17.022Z,0.80
2018-11-12T02:25:44.506Z,0.80
2018-11-12T02:28:12.026Z,1.00
2018-11-12T02:30:45.991Z,0.80
2018-11-12T02:33:13.638Z,0.60
2018-11-12T02:35:41.006Z,0.73
2018-11-12T02:38:08.520Z,0.95
2018-11-12T02:40:36.035Z,0.80
2018-11-12T02:43:03.551Z,0.80
2018-11-12T02:45:31.060Z,0.80
2018-11-12T02:47:58.554Z,0.70
2018-11-12T02:50:26.295Z,0.90
2018-11-12T02:52:53.869Z,0.83
2018-11-12T02:55:21.411Z,0.80
2018-11-12T02:57:48.919Z,0.67
2018-11-12T03:00:18.147Z,0.70
2018-11-12T03:02:45.819Z,0.60
2018-11-12T03:05:13.488Z,0.93
2018-11-12T03:07:41.147Z,0.70
2018-11-12T03:10:09.557Z,0.97
2018-11-12T03:12:37.111Z,0.70
2018-11-12T03:15:05.650Z,0.90
2018-11-12T03:17:33.150Z,0.80
2018-11-12T03:20:00.671Z,0.90
2018-11-12T03:22:28.174Z,0.80
2018-11-12T03:24:55.727Z,0.70
2018-11-12T03:27:23.294Z,0.77
2018-11-12T03:29:50.825Z,0.90
2018-11-12T03:32:18.358Z,0.93
2018-11-12T03:34:45.847Z,0.80
2018-11-12T03:37:13.390Z,0.80
2018-11-12T03:39:40.996Z,0.97
2018-11-12T03:42:08.422Z,0.80
2018-11-12T03:44:35.975Z,0.97
2018-11-12T03:47:03.462Z,1.00
2018-11-12T03:49:30.998Z,0.90
2018-11-12T03:51:58.479Z,0.70
2018-11-12T03:54:25.985Z,1.17
2018-11-12T03:56:53.487Z,0.90
2018-11-12T03:59:21.401Z,1.10
2018-11-12T04:01:48.885Z,1.05
2018-11-12T04:04:17.108Z,1.00
2018-11-12T04:06:45.513Z,0.80
2018-11-12T04:09:13.182Z,1.00
2018-11-12T04:11:42.803Z,0.75
2018-11-12T04:14:11.114Z,0.90
2018-11-12T04:16:39.713Z,1.03
2018-11-12T04:19:07.515Z,0.80
2018-11-12T04:21:35.189Z,0.90
2018-11-12T04:24:02.690Z,0.80
2018-11-12T04:26:30.206Z,0.97
2018-11-12T04:28:57.815Z,0.90
2018-11-12T04:31:25.374Z,1.10
2018-11-12T04:33:52.991Z,1.30
2018-11-12T04:36:20.519Z,0.90
2018-11-12T04:38:48.055Z,0.70
2018-11-12T04:41:15.575Z,1.00
2018-11-12T04:43:43.110Z,0.90
2018-11-12T04:46:10.623Z,1.10
2018-11-12T04:48:38.630Z,1.15
2018-11-12T04:51:06.163Z,1.30
2018-11-12T04:53:33.775Z,0.97
2018-11-12T04:56:01.980Z,0.87
2018-11-12T04:58:29.494Z,1.30
2018-11-12T05:00:57.035Z,1.00
2018-11-12T05:03:24.574Z,1.43
2018-11-12T05:05:52.083Z,1.10
2018-11-12T05:08:19.628Z,1.30
2018-11-12T05:10:47.138Z,1.10
2018-11-12T05:13:15.483Z,1.07
2018-11-12T05:15:43.027Z,1.10
2018-11-12T05:18:10.551Z,1.10
2018-11-12T05:20:38.052Z,0.95
2018-11-12T05:23:05.560Z,1.10
2018-11-12T05:25:33.082Z,1.13
2018-11-12T05:28:00.613Z,1.30
2018-11-12T05:30:29.007Z,1.07
2018-11-12T05:32:57.212Z,1.07
2018-11-12T05:35:26.854Z,1.10
2018-11-12T05:37:54.511Z,0.90
2018-11-12T05:40:24.054Z,1.20
2018-11-12T05:42:51.557Z,1.10
2018-11-12T05:45:20.238Z,1.33
2018-11-12T05:47:47.790Z,0.90
2018-11-12T05:50:17.702Z,0.93
2018-11-12T05:52:47.397Z,1.00
2018-11-12T05:55:16.163Z,1.00
2018-11-12T05:57:44.408Z,1.10
2018-11-12T06:00:12.719Z,1.40
2018-11-12T06:02:40.389Z,1.00
2018-11-12T06:05:08.611Z,0.87
2018-11-12T06:07:36.583Z,1.00
2018-11-12T06:10:05.018Z,1.00
2018-11-12T06:12:32.622Z,1.10
2018-11-12T06:15:00.164Z,0.98
2018-11-12T06:17:28.451Z,1.20
2018-11-12T06:19:56.008Z,1.37
2018-11-12T06:22:23.471Z,1.20
2018-11-12T06:24:50.983Z,1.20
2018-11-12T06:27:18.498Z,1.20
2018-11-12T06:29:46.209Z,1.10
2018-11-12T06:32:13.730Z,1.20
2018-11-12T06:34:41.241Z,1.33
2018-11-12T06:37:08.744Z,0.85
2018-11-12T06:39:36.242Z,1.17
2018-11-12T06:42:03.803Z,1.80
2018-11-12T06:44:31.311Z,0.80
2018-11-12T06:46:58.962Z,1.00
2018-11-12T06:49:26.791Z,1.30
2018-11-12T06:51:54.286Z,1.13
2018-11-12T06:54:21.822Z,1.47
2018-11-12T06:56:49.307Z,1.30
2018-11-12T06:59:16.851Z,1.05
2018-11-12T07:01:44.365Z,1.35
2018-11-12T07:04:11.891Z,1.20
2018-11-12T07:06:39.415Z,0.90
2018-11-12T07:09:08.190Z,1.80
2018-11-12T07:11:35.707Z,1.10
2018-11-12T07:14:18.998Z,1.20
2018-11-12T07:17:03.412Z,1.63
2018-11-12T07:19:46.730Z,1.30
2018-11-12T07:22:14.240Z,1.70
2018-11-12T07:24:41.754Z,1.30
2018-11-12T07:27:09.266Z,1.90
2018-11-12T07:29:36.779Z,1.10
2018-11-12T07:32:04.318Z,1.60
2018-11-12T07:34:31.877Z,1.63
2018-11-12T07:36:59.371Z,1.60
2018-11-12T07:39:26.882Z,1.40
2018-11-12T07:41:54.457Z,1.53
2018-11-12T07:44:22.393Z,2.00
2018-11-12T07:46:49.891Z,1.82
2018-11-12T07:49:17.410Z,2.10
2018-11-12T07:51:45.551Z,1.93
2018-11-12T07:54:13.068Z,2.60
2018-11-12T07:56:40.590Z,2.53
2018-11-12T07:59:08.131Z,1.90
2018-11-12T08:01:35.659Z,1.57
2018-11-12T08:04:03.346Z,1.97
2018-11-12T08:06:30.855Z,2.40
2018-11-12T08:08:58.465Z,1.70
2018-11-12T08:11:26.043Z,1.83
2018-11-12T08:13:53.787Z,2.03
2018-11-12T08:16:21.299Z,1.70
2018-11-12T08:18:48.823Z,1.73
2018-11-12T08:21:16.338Z,2.13
2018-11-12T08:23:43.894Z,2.25
2018-11-12T08:26:11.414Z,2.33
2018-11-12T08:28:38.929Z,1.53
2018-11-12T08:31:06.452Z,1.40
2018-11-12T08:33:33.971Z,2.77
2018-11-12T08:36:02.865Z,2.20
2018-11-12T08:38:30.384Z,1.77
2018-11-12T08:40:57.947Z,2.00
2018-11-12T08:43:25.535Z,3.07
2018-11-12T08:45:53.118Z,2.80
2018-11-12T08:48:20.629Z,2.40
2018-11-12T08:50:48.131Z,2.72
2018-11-12T08:53:15.660Z,2.40
2018-11-12T08:55:43.256Z,3.03
2018-11-12T08:58:11.176Z,2.50
2018-11-12T09:00:38.275Z,2.00
2018-11-12T09:03:05.743Z,2.58
2018-11-12T09:05:33.401Z,2.70
2018-11-12T09:08:01.950Z,1.53
2018-11-12T09:10:31.666Z,3.23
2018-11-12T09:12:59.237Z,2.83
2018-11-12T09:15:27.679Z,3.10
2018-11-12T09:17:55.184Z,3.98
2018-11-12T09:20:24.030Z,3.43
2018-11-12T09:22:51.670Z,3.20
2018-11-12T09:25:20.326Z,3.60
2018-11-12T09:27:47.891Z,4.03
2018-11-12T09:30:20.016Z,3.50
2018-11-12T09:32:47.751Z,3.47
2018-11-12T09:35:17.129Z,3.77
2018-11-12T09:37:45.907Z,3.60
2018-11-12T09:40:20.103Z,3.47
2018-11-12T09:42:47.651Z,4.47
2018-11-12T09:45:15.178Z,3.10
2018-11-12T09:47:43.457Z,4.00
2018-11-12T09:50:13.182Z,3.57
2018-11-12T09:52:41.982Z,3.27
2018-11-12T09:55:10.299Z,4.30
2018-11-12T09:57:38.467Z,3.93
2018-11-12T10:00:06.919Z,3.90
2018-11-12T10:02:35.450Z,2.63
2018-11-12T10:05:03.500Z,4.50
2018-11-12T10:07:31.709Z,3.17
2018-11-12T10:09:59.685Z,3.83
2018-11-12T10:12:27.309Z,2.97
2018-11-12T10:14:54.848Z,3.42
2018-11-12T10:17:22.914Z,3.05
2018-11-12T10:19:47.598Z,3.30
2018-11-12T10:22:15.166Z,3.40
2018-11-12T10:24:42.693Z,3.10
2018-11-12T10:27:10.319Z,3.70
2018-11-12T10:29:37.940Z,3.77
2018-11-12T10:32:05.491Z,4.33
2018-11-12T10:34:33.011Z,3.63
2018-11-12T10:37:01.541Z,4.20
2018-11-12T10:39:29.214Z,4.53
2018-11-12T10:41:56.830Z,3.90
2018-11-12T10:44:24.739Z,3.97
2018-11-12T10:46:52.245Z,4.47
2018-11-12T10:49:19.754Z,3.80
2018-11-12T10:51:47.303Z,4.17
2018-11-12T10:54:14.907Z,3.93
2018-11-12T10:56:42.340Z,4.60
2018-11-12T10:59:09.965Z,4.40
2018-11-12T11:01:43.087Z,4.47
2018-11-12T11:04:16.250Z,4.10
2018-11-12T11:06:43.823Z,3.40
2018-11-12T11:09:11.323Z,4.23
2018-11-12T11:11:38.850Z,4.70
2018-11-12T11:14:06.376Z,4.60
2018-11-12T11:16:33.924Z,4.63
2018-11-12T11:19:02.148Z,4.33
2018-11-12T11:21:29.650Z,6.10
2018-11-12T11:23:57.170Z,5.73
2018-11-12T11:26:24.687Z,5.37
2018-11-12T11:28:52.204Z,5.67
2018-11-12T11:31:19.751Z,5.33
2018-11-12T11:33:47.358Z,4.50
2018-11-12T11:36:14.890Z,4.80
2018-11-12T11:38:42.571Z,4.75
2018-11-12T11:41:10.087Z,5.77
2018-11-12T11:43:37.595Z,5.73
2018-11-12T11:46:05.188Z,4.73
2018-11-12T11:48:32.647Z,4.80
2018-11-12T11:51:00.171Z,5.67
2018-11-12T11:53:28.238Z,5.30
2018-11-12T11:55:55.782Z,6.10
2018-11-12T11:58:23.559Z,3.90
2018-11-12T12:00:51.091Z,4.60
2018-11-12T12:03:18.581Z,4.43
2018-11-12T12:05:46.295Z,4.60
2018-11-12T12:08:13.822Z,4.40
2018-11-12T12:10:41.347Z,3.60
2018-11-12T12:13:08.923Z,3.87
2018-11-12T12:15:36.422Z,3.43
2018-11-12T12:18:03.952Z,2.17
2018-11-12T12:20:31.487Z,2.95
2018-11-12T12:22:58.986Z,2.70
2018-11-12T12:25:26.574Z,1.97
2018-11-12T12:27:54.047Z,1.80
2018-11-12T12:30:22.947Z,2.30
2018-11-12T12:32:51.259Z,2.10
2018-11-12T12:35:18.790Z,2.17
2018-11-12T12:37:46.765Z,2.10
2018-11-12T12:40:15.547Z,2.10
2018-11-12T12:42:43.071Z,1.93
2018-11-12T12:45:12.314Z,2.13
2018-11-12T12:47:39.903Z,1.97
2018-11-12T12:50:08.049Z,3.08
2018-11-12T12:52:35.575Z,2.15
2018-11-12T12:55:03.114Z,1.80
2018-11-12T12:57:30.827Z,2.20
2018-11-12T12:59:58.376Z,2.43
2018-11-12T13:02:25.904Z,1.90
2018-11-12T13:04:53.683Z,1.70
2018-11-12T13:07:20.969Z,2.10
2018-11-12T13:09:48.437Z,2.10
2018-11-12T13:12:15.975Z,1.60
2018-11-12T13:14:43.536Z,2.20
2018-11-12T13:17:11.111Z,2.40
2018-11-12T13:19:38.594Z,2.50
2018-11-12T13:22:06.102Z,2.25
2018-11-12T13:24:33.607Z,2.17
2018-11-12T13:27:01.454Z,2.00
2018-11-12T13:29:29.005Z,1.53
2018-11-12T13:31:56.509Z,1.40
2018-11-12T13:34:24.043Z,1.77
2018-11-12T13:36:51.700Z,1.80
2018-11-12T13:39:19.254Z,1.80
2018-11-12T13:41:46.723Z,2.07
2018-11-12T13:44:14.692Z,1.30
2018-11-12T13:46:47.721Z,1.50
2018-11-12T13:49:15.266Z,2.25
2018-11-12T13:51:42.782Z,2.03
2018-11-12T13:54:10.318Z,1.63
2018-11-12T13:56:37.846Z,1.60
2018-11-12T13:59:06.032Z,1.85
2018-11-12T14:01:33.547Z,1.67
2018-11-12T14:04:01.385Z,1.70
2018-11-12T14:06:28.910Z,2.60
2018-11-12T14:08:57.092Z,1.73
2018-11-12T14:11:24.916Z,2.00
2018-11-12T14:13:52.555Z,1.63
2018-11-12T14:16:20.145Z,2.00
2018-11-12T14:18:47.871Z,1.45
2018-11-12T14:21:15.497Z,1.62
2018-11-12T14:23:42.968Z,1.83
2018-11-12T14:26:10.591Z,2.00
2018-11-12T14:28:38.329Z,1.80
2018-11-12T14:31:05.655Z,2.07
2018-11-12T14:33:33.175Z,1.65
2018-11-12T14:36:00.773Z,1.43
2018-11-12T14:38:28.615Z,2.00
2018-11-12T14:40:56.150Z,1.37
2018-11-12T14:43:23.690Z,1.70
2018-11-12T14:45:51.191Z,1.60
2018-11-12T14:48:18.709Z,1.90
2018-11-12T14:50:46.233Z,1.63
2018-11-12T14:53:13.767Z,1.60
2018-11-12T14:55:41.298Z,1.77
2018-11-12T14:58:08.848Z,1.77
2018-11-12T15:00:36.367Z,1.50
2018-11-12T15:03:03.903Z,1.80
2018-11-12T15:05:31.398Z,1.90
2018-11-12T15:07:59.211Z,1.90
2018-11-12T15:10:26.736Z,1.70
2018-11-12T15:12:54.305Z,1.93
2018-11-12T15:15:21.783Z,1.70
2018-11-12T15:17:49.295Z,1.20
2018-11-12T15:20:19.421Z,2.60
2018-11-12T15:22:47.005Z,1.77
2018-11-12T15:25:15.691Z,1.47
2018-11-12T15:27:43.595Z,2.07
2018-11-12T15:30:13.076Z,1.40
2018-11-12T15:32:40.961Z,1.52
2018-11-12T15:35:09.645Z,1.47
2018-11-12T15:37:37.296Z,1.87
2018-11-12T15:40:05.419Z,1.70
2018-11-12T15:42:32.947Z,1.83
2018-11-12T15:45:00.443Z,2.27
2018-11-12T15:47:28.142Z,2.07
2018-11-12T15:49:55.875Z,1.73
2018-11-12T15:52:24.152Z,1.47
2018-11-12T15:54:51.714Z,1.33
2018-11-12T15:57:19.301Z,2.27
2018-11-12T15:59:46.779Z,1.90
2018-11-12T16:02:14.290Z,1.40
2018-11-12T16:04:41.843Z,1.43
2018-11-12T16:07:09.355Z,1.63
2018-11-12T16:09:36.879Z,2.00
2018-11-12T16:12:04.457Z,1.45
2018-11-12T16:14:31.922Z,2.17
2018-11-12T16:16:59.415Z,1.50
2018-11-12T16:19:26.947Z,1.80
2018-11-12T16:21:54.463Z,1.83
2018-11-12T16:24:22.018Z,1.57
2018-11-12T16:26:49.544Z,1.63
2018-11-12T16:29:17.075Z,1.50
2018-11-12T16:31:44.635Z,1.70
2018-11-12T16:34:12.170Z,1.70
2018-11-12T16:36:39.709Z,1.60
2018-11-12T16:39:08.303Z,1.97
2018-11-12T16:41:35.808Z,2.10
2018-11-12T16:44:03.363Z,1.63
2018-11-12T16:46:30.850Z,1.55
2018-11-12T16:48:58.374Z,1.97
2018-11-12T16:51:25.894Z,2.07
2018-11-12T16:53:53.647Z,1.83
2018-11-12T16:56:21.183Z,1.77
2018-11-12T16:58:48.692Z,2.17
2018-11-12T17:01:16.235Z,1.90
2018-11-12T17:03:43.725Z,13.63
2018-11-12T17:06:11.239Z,4.10
2018-11-12T17:08:38.815Z,3.85
2018-11-12T17:11:06.451Z,2.50
2018-11-12T17:13:33.926Z,3.23
2018-11-12T17:16:02.027Z,3.63
2018-11-12T17:18:29.541Z,3.63
2018-11-12T17:20:57.048Z,3.63
2018-11-12T17:23:24.815Z,4.47
2018-11-12T17:25:52.367Z,4.80
2018-11-12T17:28:19.887Z,6.10
2018-11-12T17:30:47.459Z,6.12
2018-11-12T17:33:14.934Z,8.23
2018-11-12T17:35:42.471Z,7.50
2018-11-12T17:38:09.999Z,6.60
2018-11-12T17:40:38.270Z,8.53
2018-11-12T17:43:05.821Z,8.97
2018-11-12T17:45:33.300Z,8.63
2018-11-12T17:48:01.463Z,7.60
2018-11-12T17:50:29.217Z,8.05
2018-11-12T17:52:56.726Z,7.43
2018-11-12T17:55:24.355Z,9.30
2018-11-12T17:57:51.895Z,10.23
2018-11-12T18:00:21.385Z,10.17
2018-11-12T18:02:49.213Z,8.30
2018-11-12T18:05:16.743Z,8.83
2018-11-12T18:07:44.438Z,8.77
2018-11-12T18:10:12.593Z,8.60
2018-11-12T18:12:40.134Z,8.90
2018-11-12T18:15:09.411Z,9.27
2018-11-12T18:17:36.982Z,10.93
2018-11-12T18:20:05.832Z,10.78
2018-11-12T18:22:33.371Z,11.67
2018-11-12T18:25:01.751Z,11.60
2018-11-12T18:27:29.290Z,12.93
2018-11-12T18:29:56.929Z,12.43
2018-11-12T18:32:24.408Z,11.67
2018-11-12T18:34:52.122Z,11.47
2018-11-12T18:37:19.655Z,13.20
2018-11-12T18:39:47.198Z,14.00
2018-11-12T18:42:14.715Z,12.33
2018-11-12T18:44:42.456Z,11.90
2018-11-12T18:47:09.998Z,10.98
2018-11-12T18:49:37.551Z,12.20
2018-11-12T18:52:05.510Z,12.50
2018-11-12T18:54:33.058Z,12.23
2018-11-12T18:57:00.592Z,11.70
2018-11-12T18:59:28.982Z,12.03
2018-11-12T19:01:56.592Z,10.37
2018-11-12T19:04:24.178Z,11.07
2018-11-12T19:06:51.760Z,10.73
2018-11-12T19:09:19.255Z,10.32
2018-11-12T19:11:47.359Z,10.03
2018-11-12T19:14:14.877Z,10.57
2018-11-12T19:16:42.410Z,9.70
2018-11-12T19:19:09.944Z,10.73
2018-11-12T19:21:37.478Z,10.13
2018-11-12T19:24:05.326Z,9.97
2018-11-12T19:26:32.900Z,11.07
2018-11-12T19:29:00.403Z,12.17
2018-11-12T19:31:28.350Z,13.67
2018-11-12T19:33:55.852Z,11.43
2018-11-12T19:36:23.986Z,11.43
2018-11-12T19:38:51.547Z,10.93
2018-11-12T19:41:19.763Z,10.00
2018-11-12T19:43:47.263Z,9.98
2018-11-12T19:46:14.835Z,11.95
2018-11-12T19:48:42.371Z,12.50
2018-11-12T19:51:09.927Z,9.90
2018-11-12T19:53:37.434Z,539.83
2018-11-12T19:56:04.990Z,293.80
2018-11-12T19:58:32.538Z,171.93
2018-11-12T20:01:00.110Z,43.97
2018-11-12T20:03:28.299Z,32.80
2018-11-12T20:05:55.886Z,23.67
2018-11-12T20:08:23.630Z,19.80
2018-11-12T20:10:51.023Z,16.73
2018-11-12T20:13:18.634Z,24.07
2018-11-12T20:15:46.271Z,19.43
2018-11-12T20:18:13.779Z,20.70
2018-11-12T20:20:41.332Z,19.23
2018-11-12T20:23:08.846Z,15.07
2018-11-12T20:25:36.432Z,17.07
2018-11-12T20:28:03.940Z,14.10
2018-11-12T20:30:35.623Z,16.37
2018-11-12T20:33:04.641Z,14.73
2018-11-12T20:35:32.200Z,14.70
2018-11-12T20:37:59.739Z,16.03
2018-11-12T20:40:27.286Z,17.10
2018-11-12T20:42:54.805Z,13.83
2018-11-12T20:45:23.630Z,12.40
2018-11-12T20:47:52.882Z,13.83
2018-11-12T20:50:20.439Z,13.77
2018-11-12T20:52:48.004Z,12.33
2018-11-12T20:55:16.510Z,11.03
2018-11-12T20:57:44.648Z,12.07
2018-11-12T21:00:14.523Z,12.57
2018-11-12T21:02:43.914Z,11.40
2018-11-12T21:05:12.263Z,13.13
2018-11-12T21:07:40.686Z,12.13
2018-11-12T21:10:09.088Z,12.00
2018-11-12T21:12:36.630Z,12.00
2018-11-12T21:15:04.494Z,11.87
2018-11-12T21:17:32.014Z,12.70
2018-11-12T21:19:59.611Z,11.33
2018-11-12T21:22:27.162Z,11.37
2018-11-12T21:24:54.738Z,10.00
2018-11-12T21:27:22.292Z,10.48
2018-11-12T21:29:50.007Z,13.77
2018-11-12T21:32:17.534Z,11.60
2018-11-12T21:34:45.102Z,999.90
2018-11-12T21:37:12.776Z,925.73
2018-11-12T21:39:41.076Z,284.50
2018-11-12T21:42:08.624Z,124.87
2018-11-12T21:44:36.199Z,92.90
2018-11-12T21:47:03.753Z,68.30
2018-11-12T21:49:31.353Z,70.50
2018-11-12T21:51:58.898Z,36.23
2018-11-12T21:54:27.288Z,56.10
2018-11-12T21:56:54.844Z,37.27
2018-11-12T21:59:22.821Z,42.27
2018-11-12T22:01:50.362Z,42.57
2018-11-12T22:04:17.891Z,38.90
2018-11-12T22:06:45.413Z,43.60
2018-11-12T22:09:12.935Z,44.80
2018-11-12T22:11:40.799Z,39.20
2018-11-12T22:14:08.475Z,23.27
2018-11-12T22:16:36.132Z,35.97
2018-11-12T22:19:04.801Z,30.80
2018-11-12T22:21:32.319Z,29.42
2018-11-12T22:23:59.871Z,29.70
2018-11-12T22:26:27.399Z,15.70
2018-11-12T22:28:55.045Z,25.70
2018-11-12T22:31:22.564Z,24.20
2018-11-12T22:33:50.087Z,25.10
2018-11-12T22:36:17.659Z,25.20
2018-11-12T22:38:45.158Z,20.02
2018-11-12T22:41:12.891Z,20.90
2018-11-12T22:43:40.403Z,21.37
2018-11-12T22:46:07.940Z,19.00
2018-11-12T22:48:35.679Z,19.43
2018-11-12T22:51:03.571Z,17.80
2018-11-12T22:53:31.092Z,17.75
2018-11-12T22:55:58.608Z,15.97
2018-11-12T22:58:26.150Z,16.77
2018-11-12T23:00:53.728Z,16.02
2018-11-12T23:03:21.275Z,14.57
2018-11-12T23:05:48.814Z,16.57
2018-11-12T23:08:16.334Z,15.87
2018-11-12T23:10:44.492Z,15.20
2018-11-12T23:13:11.983Z,13.23
2018-11-12T23:15:39.530Z,13.60
2018-11-12T23:18:07.039Z,15.50
2018-11-12T23:20:34.560Z,14.63
2018-11-12T23:23:03.525Z,14.20
2018-11-12T23:25:31.073Z,13.70
2018-11-12T23:27:58.576Z,15.75
2018-11-12T23:30:26.095Z,13.68
2018-11-12T23:32:54.598Z,14.03
2018-11-12T23:35:23.306Z,11.40
2018-11-12T23:37:51.109Z,13.67
2018-11-12T23:40:18.706Z,14.30
2018-11-12T23:42:46.885Z,13.40
2018-11-12T23:45:14.436Z,13.47
2018-11-12T23:47:41.952Z,13.00
2018-11-12T23:50:10.390Z,14.20
2018-11-12T23:52:38.014Z,11.75
2018-11-12T23:55:05.652Z,11.40
2018-11-12T23:57:33.110Z,11.00
